createdAt,value
2023-01-01T00:00:50.145Z,100473.25
2023-01-01T00:03:18.996Z,100460.19
2023-01-01T00:05:47.770Z,100473.13
2023-01-01T00:08:17.723Z,100437.50
2023-01-01T00:10:46.177Z,100491.53
2023-01-01T00:13:18.864Z,100472.91
2023-01-01T00:21:29.164Z,100453.19
2023-01-01T00:23:59.088Z,100456.13
2023-01-01T00:26:32.770Z,100490.53
2023-01-01T00:29:04.534Z,100487.22
2023-01-01T00:31:34.379Z,100494.34
2023-01-01T00:34:03.051Z,100501.78
2023-01-01T00:36:31.876Z,100505.69
2023-01-01T00:39:04.782Z,100507.53
2023-01-01T00:41:33.244Z,100501.91
2023-01-01T00:44:01.790Z,100497.59
2023-01-01T00:46:30.293Z,100496.75
2023-01-01T00:48:58.923Z,100510.78
2023-01-01T00:51:30.490Z,100489.69
2023-01-01T00:54:07.264Z,100398.69
2023-01-01T00:56:36.317Z,100465.25
2023-01-01T00:59:06.439Z,100472.09
2023-01-01T01:01:35.299Z,100510.66
2023-01-01T01:04:04.406Z,100499.00
2023-01-01T01:06:32.823Z,100507.06
2023-01-01T01:09:01.245Z,100514.16
2023-01-01T01:11:31.086Z,100366.00
2023-01-01T01:13:59.777Z,100508.50
2023-01-01T01:16:31.039Z,100481.53
2023-01-01T01:19:04.460Z,100530.81
2023-01-01T01:21:35.659Z,100520.94
2023-01-01T01:24:05.467Z,100481.38
2023-01-01T01:26:36.661Z,100530.59
2023-01-01T01:29:05.610Z,100522.22
2023-01-01T01:31:35.677Z,100526.81
2023-01-01T01:34:04.636Z,100532.03
2023-01-01T01:36:34.423Z,100528.84
2023-01-01T01:39:02.805Z,100532.38
2023-01-01T01:41:31.428Z,100541.44
2023-01-01T01:44:06.054Z,100455.44
2023-01-01T01:46:40.672Z,100542.66
2023-01-01T01:49:19.145Z,100419.28
2023-01-01T01:51:47.780Z,100422.81
2023-01-01T01:54:23.923Z,100548.00
2023-01-01T01:57:00.220Z,100554.97
2023-01-01T01:59:36.397Z,100554.97
2023-01-01T02:02:11.261Z,100569.16
2023-01-01T02:04:40.294Z,100567.16
2023-01-01T02:07:09.355Z,100518.03
2023-01-01T02:09:38.336Z,100473.47
2023-01-01T02:12:07.227Z,100567.78
2023-01-01T02:14:37.149Z,100567.63
2023-01-01T02:17:16.775Z,100571.47
2023-01-01T02:19:59.993Z,100571.38
2023-01-01T02:22:51.327Z,100569.34
2023-01-01T02:25:36.352Z,100535.56
2023-01-01T02:28:24.996Z,100574.28
2023-01-01T02:30:58.148Z,100470.34
2023-01-01T02:33:28.247Z,100559.78
2023-01-01T02:36:00.941Z,100455.03
2023-01-01T02:38:34.219Z,100561.72
2023-01-01T02:41:07.746Z,100560.31
2023-01-01T02:43:36.203Z,100346.75
2023-01-01T02:46:11.299Z,100535.75
2023-01-01T02:48:47.087Z,100565.25
2023-01-01T02:51:29.256Z,100525.25
2023-01-01T02:54:09.573Z,100561.38
2023-01-01T02:56:48.678Z,100398.56
2023-01-01T02:59:44.562Z,100388.19
2023-01-01T03:02:30.876Z,100566.31
2023-01-01T03:05:12.094Z,100510.63
2023-01-01T03:07:55.824Z,100489.16
2023-01-01T03:10:34.615Z,100567.69
2023-01-01T03:13:14.259Z,100570.53
2023-01-01T03:15:51.628Z,100543.78
2023-01-01T03:18:30.279Z,100494.63
2023-01-01T03:21:03.800Z,100564.22
2023-01-01T03:23:38.745Z,100563.81
2023-01-01T03:26:13.897Z,100395.59
2023-01-01T03:28:50.587Z,100569.16
2023-01-01T03:31:25.466Z,100570.25
2023-01-01T03:34:03.943Z,100571.19
2023-01-01T03:36:38.656Z,100439.59
2023-01-01T03:39:13.802Z,100543.78
2023-01-01T03:41:53.885Z,100573.72
2023-01-01T03:44:35.812Z,100571.00
2023-01-01T03:47:07.380Z,100394.38
2023-01-01T03:49:37.696Z,100584.84
2023-01-01T03:52:27.547Z,100571.41
2023-01-01T03:55:06.278Z,100566.09
2023-01-01T03:57:45.505Z,100573.72
2023-01-01T04:00:18.033Z,100493.03
2023-01-01T04:02:56.332Z,100570.38
2023-01-01T04:05:27.828Z,100571.56
2023-01-01T04:07:57.713Z,100571.03
2023-01-01T04:10:29.543Z,100494.69
2023-01-01T04:12:59.670Z,100581.81
2023-01-01T04:15:29.486Z,100565.75
2023-01-01T04:17:57.937Z,100591.53
2023-01-01T04:20:28.096Z,100516.94
2023-01-01T04:22:57.942Z,100583.09
2023-01-01T04:25:27.526Z,100585.50
2023-01-01T04:27:59.901Z,100564.19
2023-01-01T04:30:28.425Z,100586.78
2023-01-01T04:32:57.538Z,100593.16
2023-01-01T04:35:27.322Z,100598.41
2023-01-01T04:37:55.755Z,100594.09
2023-01-01T04:40:24.129Z,100594.38
2023-01-01T04:42:55.456Z,100591.03
2023-01-01T04:45:23.999Z,100565.22
2023-01-01T04:47:52.383Z,100590.66
2023-01-01T04:50:20.846Z,100591.38
2023-01-01T04:52:52.448Z,100582.84
2023-01-01T04:55:21.485Z,100600.53
2023-01-01T04:57:49.831Z,100389.41
2023-01-01T05:00:19.021Z,100604.00
2023-01-01T05:02:47.561Z,100600.28
2023-01-01T05:05:18.993Z,100605.78
2023-01-01T05:07:47.439Z,100615.56
2023-01-01T05:10:18.759Z,100612.06
2023-01-01T05:12:47.213Z,100622.84
2023-01-01T05:15:15.731Z,100608.13
2023-01-01T05:17:44.131Z,100617.66
2023-01-01T05:20:13.215Z,100608.75
2023-01-01T05:22:41.607Z,100619.16
2023-01-01T05:25:10.873Z,100615.81
2023-01-01T05:27:40.676Z,100610.53
2023-01-01T05:30:10.562Z,100610.06
2023-01-01T05:32:39.708Z,100619.16
2023-01-01T05:35:08.856Z,100612.91
2023-01-01T05:37:37.365Z,100615.50
2023-01-01T05:40:07.606Z,100619.13
2023-01-01T05:42:37.130Z,100606.13
2023-01-01T05:45:11.354Z,100614.47
2023-01-01T05:47:40.317Z,100611.25
2023-01-01T05:52:40.617Z,100641.88
2023-01-01T05:55:10.004Z,100650.56
2023-01-01T05:57:38.440Z,100583.50
2023-01-01T06:00:10.430Z,100649.31
2023-01-01T06:02:39.089Z,100620.91
2023-01-01T06:05:09.737Z,100448.72
2023-01-01T06:07:43.301Z,100655.09
2023-01-01T06:10:16.785Z,100656.94
2023-01-01T06:12:45.165Z,100509.69
2023-01-01T06:15:16.362Z,100494.63
2023-01-01T06:17:47.091Z,100664.22
2023-01-01T06:20:15.613Z,100666.78
2023-01-01T06:22:44.020Z,100663.13
2023-01-01T06:25:12.807Z,100658.91
2023-01-01T06:27:42.892Z,100641.00
2023-01-01T06:30:12.589Z,100664.53
2023-01-01T06:32:42.378Z,100667.84
2023-01-01T06:35:11.483Z,100669.03
2023-01-01T06:37:39.950Z,100670.97
2023-01-01T06:40:10.517Z,100669.28
2023-01-01T06:42:39.815Z,100591.78
2023-01-01T06:45:10.246Z,100663.78
2023-01-01T06:47:38.770Z,100676.72
2023-01-01T06:50:10.485Z,100676.72
2023-01-01T06:52:38.943Z,100668.56
2023-01-01T06:55:08.620Z,100638.44
2023-01-01T06:57:37.045Z,100686.00
2023-01-01T07:00:06.574Z,100687.34
2023-01-01T07:02:35.104Z,100652.56
2023-01-01T07:05:04.418Z,100690.00
2023-01-01T07:07:36.086Z,100688.34
2023-01-01T07:10:04.882Z,100690.09
2023-01-01T07:12:33.380Z,100671.81
2023-01-01T07:15:01.807Z,100700.56
2023-01-01T07:17:32.667Z,100701.34
2023-01-01T07:20:01.071Z,100706.41
2023-01-01T07:22:31.320Z,100720.59
2023-01-01T07:25:01.122Z,100711.63
2023-01-01T07:27:29.794Z,100722.97
2023-01-01T07:29:58.195Z,100736.97
2023-01-01T07:32:28.805Z,100731.59
2023-01-01T07:34:57.256Z,100726.03
2023-01-01T07:37:26.394Z,100729.31
2023-01-01T07:39:54.853Z,100599.78
2023-01-01T07:42:24.594Z,100745.72
2023-01-01T07:44:53.037Z,100706.19
2023-01-01T07:47:24.603Z,100550.56
2023-01-01T07:49:53.835Z,100748.25
2023-01-01T07:52:22.560Z,100744.69
2023-01-01T07:54:50.968Z,100663.78
2023-01-01T07:57:19.363Z,100704.66
2023-01-01T07:59:49.228Z,100754.47
2023-01-01T08:02:17.743Z,100761.13
2023-01-01T08:04:46.230Z,100763.63
2023-01-01T08:07:14.635Z,100770.47
2023-01-01T08:09:43.016Z,100633.66
2023-01-01T08:12:11.531Z,100570.25
2023-01-01T08:14:39.960Z,100766.78
2023-01-01T08:17:09.762Z,100779.34
2023-01-01T08:19:38.257Z,100683.34
2023-01-01T08:22:06.771Z,100778.88
2023-01-01T08:24:35.167Z,100784.91
2023-01-01T08:27:03.638Z,100781.22
2023-01-01T08:29:32.116Z,100775.50
2023-01-01T08:32:00.563Z,100783.41
2023-01-01T08:34:30.752Z,100779.81
2023-01-01T08:36:59.986Z,100739.28
2023-01-01T08:39:28.531Z,100785.88
2023-01-01T08:41:57.005Z,100791.03
2023-01-01T08:44:26.808Z,100786.34
2023-01-01T08:46:55.754Z,100783.28
2023-01-01T08:49:24.289Z,100796.28
2023-01-01T08:51:54.119Z,100803.13
2023-01-01T08:54:22.546Z,100728.00
2023-01-01T08:56:50.931Z,100808.28
2023-01-01T08:59:20.764Z,100805.50
2023-01-01T09:01:49.303Z,100774.81
2023-01-01T09:04:17.784Z,100814.13
2023-01-01T09:06:46.142Z,100816.75
2023-01-01T09:09:15.891Z,100814.66
2023-01-01T09:11:52.834Z,100746.78
2023-01-01T09:14:22.195Z,100772.00
2023-01-01T09:16:50.765Z,100833.09
2023-01-01T09:19:20.508Z,100827.59
2023-01-01T09:21:49.187Z,100823.19
2023-01-01T09:24:19.078Z,100841.38
2023-01-01T09:26:48.037Z,100857.19
2023-01-01T09:29:18.722Z,100845.59
2023-01-01T09:31:48.170Z,100835.13
2023-01-01T09:34:18.003Z,100862.03
2023-01-01T09:36:47.712Z,100807.88
2023-01-01T09:39:20.682Z,100699.66
2023-01-01T09:42:23.683Z,100828.25
2023-01-01T09:45:22.667Z,100866.81
2023-01-01T09:47:58.147Z,100857.94
2023-01-01T09:50:39.789Z,100804.78
2023-01-01T09:53:16.672Z,100858.66
2023-01-01T09:55:54.645Z,100821.84
2023-01-01T09:58:27.639Z,100860.84
2023-01-01T10:01:03.929Z,100871.47
2023-01-01T10:03:46.538Z,100793.34
2023-01-01T10:06:25.067Z,100796.47
2023-01-01T10:09:14.506Z,100874.63
2023-01-01T10:11:56.891Z,100874.63
2023-01-01T10:14:33.531Z,100854.06
2023-01-01T10:17:11.935Z,100846.38
2023-01-01T10:19:52.082Z,100858.72
2023-01-01T10:22:26.519Z,100856.03
2023-01-01T10:25:02.151Z,100854.19
2023-01-01T10:27:37.945Z,100869.19
2023-01-01T10:30:20.635Z,100863.84
2023-01-01T10:32:51.631Z,100845.56
2023-01-01T10:35:31.291Z,100881.66
2023-01-01T10:38:01.336Z,100870.25
2023-01-01T10:40:32.273Z,100866.34
2023-01-01T10:43:04.739Z,100882.94
2023-01-01T10:45:36.510Z,100875.09
2023-01-01T10:48:18.992Z,100855.34
2023-01-01T10:50:52.608Z,100870.97
2023-01-01T10:53:32.452Z,100851.38
2023-01-01T10:56:06.978Z,100880.19
2023-01-01T10:58:44.664Z,100875.88
2023-01-01T11:01:23.028Z,100839.25
2023-01-01T11:04:00.650Z,100556.69
2023-01-01T11:06:34.879Z,100591.34
2023-01-01T11:09:07.255Z,100883.75
2023-01-01T11:11:46.567Z,100883.63
2023-01-01T11:14:26.680Z,100875.63
2023-01-01T11:16:57.750Z,100884.09
2023-01-01T11:19:32.887Z,100878.47
2023-01-01T11:22:02.497Z,100880.84
2023-01-01T11:24:33.545Z,100836.97
2023-01-01T11:27:21.713Z,100869.69
2023-01-01T11:29:54.725Z,100857.81
2023-01-01T11:32:32.678Z,100869.31
2023-01-01T11:35:07.766Z,100860.34
2023-01-01T11:37:39.948Z,100868.34
2023-01-01T11:40:21.981Z,100864.81
2023-01-01T11:42:58.295Z,100868.31
2023-01-01T11:45:38.074Z,100825.25
2023-01-01T11:48:15.441Z,100855.88
2023-01-01T11:50:54.299Z,100823.03
2023-01-01T11:53:32.147Z,100860.25
2023-01-01T11:56:15.803Z,100857.19
2023-01-01T11:58:55.017Z,100863.34
2023-01-01T12:01:33.619Z,100868.28
2023-01-01T12:04:18.713Z,100865.75
2023-01-01T12:06:55.925Z,100859.72
2023-01-01T12:09:32.264Z,100740.69
2023-01-01T12:12:10.904Z,100822.13
2023-01-01T12:14:47.933Z,100877.91
2023-01-01T12:17:24.496Z,100875.22
2023-01-01T12:20:05.938Z,100877.91
2023-01-01T12:22:34.579Z,100874.41
2023-01-01T12:25:05.291Z,100828.81
2023-01-01T12:28:01.649Z,100884.00
2023-01-01T12:30:39.661Z,100890.91
2023-01-01T12:33:37.295Z,100888.88
2023-01-01T12:36:23.739Z,100890.44
2023-01-01T12:39:54.633Z,100863.91
2023-01-01T12:42:46.483Z,100826.03
2023-01-01T12:46:16.980Z,100857.50
2023-01-01T12:49:21.209Z,100854.28
2023-01-01T12:52:05.779Z,100836.72
2023-01-01T12:55:24.896Z,100869.44
2023-01-01T12:58:04.736Z,100821.47
2023-01-01T13:00:34.488Z,100829.53
2023-01-01T13:03:16.272Z,100863.50
2023-01-01T13:05:52.863Z,100864.38
2023-01-01T13:08:21.340Z,100859.03
2023-01-01T13:10:56.100Z,100856.53
2023-01-01T13:13:24.843Z,100785.34
2023-01-01T13:15:55.720Z,100860.22
2023-01-01T13:18:34.826Z,100861.16
2023-01-01T13:21:20.604Z,100849.19
2023-01-01T13:23:55.234Z,100870.34
2023-01-01T13:26:41.651Z,100870.47
2023-01-01T13:29:51.362Z,100881.16
2023-01-01T13:32:19.820Z,100853.81
2023-01-01T13:35:18.450Z,100893.88
2023-01-01T13:37:49.529Z,100878.63
2023-01-01T13:40:56.469Z,100876.88
2023-01-01T13:43:30.280Z,100883.44
2023-01-01T13:46:13.020Z,100893.56
2023-01-01T13:49:21.647Z,100887.50
2023-01-01T13:52:34.261Z,100894.88
2023-01-01T13:55:59.102Z,100911.19
2023-01-01T13:59:07.770Z,100881.59
2023-01-01T14:01:51.428Z,100918.63
2023-01-01T14:04:38.435Z,100906.19
2023-01-01T14:07:50.222Z,100909.25
2023-01-01T14:10:23.411Z,100913.69
2023-01-01T14:13:03.571Z,100655.38
2023-01-01T14:15:35.472Z,100816.50
2023-01-01T14:18:13.572Z,100789.44
2023-01-01T14:20:50.000Z,100814.66
2023-01-01T14:23:29.280Z,100749.72
2023-01-01T14:26:08.349Z,100883.03
2023-01-01T14:28:39.946Z,100900.78
2023-01-01T14:31:16.632Z,100938.31
2023-01-01T14:33:46.467Z,100925.50
2023-01-01T14:36:21.894Z,100907.19
2023-01-01T14:38:55.659Z,100945.59
2023-01-01T14:41:30.665Z,100789.50
2023-01-01T14:44:11.267Z,100876.66
2023-01-01T14:46:43.494Z,100789.31
2023-01-01T14:49:19.194Z,100893.63
2023-01-01T14:51:55.638Z,100946.16
2023-01-01T14:54:35.052Z,100935.13
2023-01-01T14:57:04.307Z,100944.19
2023-01-01T14:59:35.102Z,100863.59
2023-01-01T15:02:16.512Z,100952.84
2023-01-01T15:04:48.584Z,100759.63
2023-01-01T15:07:32.019Z,100927.25
2023-01-01T15:10:04.353Z,100650.38
2023-01-01T15:12:37.380Z,100773.97
2023-01-01T15:15:45.145Z,100933.53
2023-01-01T15:18:41.691Z,100929.00
2023-01-01T15:21:34.459Z,100799.66
2023-01-01T15:24:15.715Z,100620.44
2023-01-01T15:26:55.483Z,100943.94
2023-01-01T15:29:34.261Z,100937.13
2023-01-01T15:32:08.449Z,100946.34
2023-01-01T15:34:44.230Z,100918.69
2023-01-01T15:37:21.068Z,100779.56
2023-01-01T15:39:53.418Z,100915.72
2023-01-01T15:42:36.734Z,100923.16
2023-01-01T15:45:32.364Z,100965.03
2023-01-01T15:48:23.115Z,100851.94
2023-01-01T15:51:05.988Z,100981.22
2023-01-01T15:53:52.812Z,100982.94
2023-01-01T15:56:36.857Z,100986.47
2023-01-01T15:59:27.493Z,100741.06
2023-01-01T16:02:13.715Z,100994.50
2023-01-01T16:04:48.836Z,101000.41
2023-01-01T16:07:31.231Z,101002.16
2023-01-01T16:10:01.492Z,100834.88
2023-01-01T16:12:51.322Z,101006.81
2023-01-01T16:15:21.813Z,101011.09
2023-01-01T16:17:55.926Z,101012.94
2023-01-01T16:20:27.101Z,101018.00
2023-01-01T16:22:58.707Z,101016.19
2023-01-01T16:26:19.204Z,100703.13
2023-01-01T16:31:29.273Z,101001.34
2023-01-01T16:34:27.773Z,100996.97
2023-01-01T16:38:19.544Z,100804.19
2023-01-01T16:41:07.544Z,100788.41
2023-01-01T16:43:27.429Z,100885.19
2023-01-01T16:46:34.943Z,100808.63
2023-01-01T16:49:15.548Z,100983.25
2023-01-01T16:51:50.667Z,101023.06
2023-01-01T16:55:44.338Z,100744.06
2023-01-01T16:57:34.187Z,101020.00
2023-01-01T17:00:04.361Z,101022.03
2023-01-01T17:02:36.275Z,101027.44
2023-01-01T17:05:10.377Z,101008.13
2023-01-01T17:07:50.403Z,100893.09
2023-01-01T17:10:34.368Z,100816.59
2023-01-01T17:13:12.059Z,101028.47
2023-01-01T17:15:45.851Z,101031.22
2023-01-01T17:18:55.351Z,100689.00
2023-01-01T17:21:21.662Z,100906.56
2023-01-01T17:24:05.498Z,101032.28
2023-01-01T17:26:53.837Z,100702.44
2023-01-01T17:29:27.696Z,100673.75
2023-01-01T17:32:12.493Z,101000.25
2023-01-01T17:34:42.531Z,100977.53
2023-01-01T17:37:23.991Z,101049.53
2023-01-01T17:40:01.908Z,101051.38
2023-01-01T17:42:36.443Z,100993.72
2023-01-01T17:45:06.250Z,100922.16
2023-01-01T17:47:50.066Z,101054.09
2023-01-01T17:50:21.349Z,100890.94
2023-01-01T17:52:59.848Z,101064.06
2023-01-01T17:55:29.626Z,100909.47
2023-01-01T17:58:06.905Z,101023.25
2023-01-01T18:00:38.320Z,101060.81
2023-01-01T18:03:07.484Z,101057.16
2023-01-01T18:05:37.903Z,101056.19
2023-01-01T18:08:07.662Z,101022.03
2023-01-01T18:10:38.355Z,100990.47
2023-01-01T18:13:22.222Z,101059.34
2023-01-01T18:15:59.486Z,101000.84
2023-01-01T18:19:13.401Z,100879.34
2023-01-01T18:21:44.755Z,101064.38
2023-01-01T18:24:18.740Z,101059.13
2023-01-01T18:26:47.616Z,101021.81
2023-01-01T18:29:19.716Z,100983.44
2023-01-01T18:31:48.715Z,100878.59
2023-01-01T18:34:26.710Z,101052.63
2023-01-01T18:36:57.167Z,101048.41
2023-01-01T18:39:33.659Z,101016.19
2023-01-01T18:42:42.755Z,101046.84
2023-01-01T18:45:20.753Z,101053.16
2023-01-01T18:47:50.464Z,100978.91
2023-01-01T18:50:28.081Z,101047.84
2023-01-01T18:53:04.307Z,101060.16
2023-01-01T18:55:32.912Z,100943.88
2023-01-01T18:58:17.337Z,101051.28
2023-01-01T19:00:48.453Z,101057.41
2023-01-01T19:03:23.274Z,100989.16
2023-01-01T19:05:52.107Z,101042.44
2023-01-01T19:08:22.387Z,100999.59
2023-01-01T19:10:54.888Z,100969.88
2023-01-01T19:13:25.960Z,100972.34
2023-01-01T19:16:02.155Z,100735.78
2023-01-01T19:18:34.982Z,101044.88
2023-01-01T19:21:21.033Z,100874.53
2023-01-01T19:23:55.832Z,101004.69
2023-01-01T19:26:39.342Z,100980.28
2023-01-01T19:29:18.361Z,100878.94
2023-01-01T19:31:50.583Z,100999.22
2023-01-01T19:34:19.722Z,101030.41
2023-01-01T19:36:50.028Z,101037.41
2023-01-01T19:39:25.403Z,100965.59
2023-01-01T19:41:56.367Z,101038.09
2023-01-01T19:44:49.173Z,100859.78
2023-01-01T19:47:44.385Z,100748.25
2023-01-01T19:50:14.099Z,101048.47
2023-01-01T19:52:43.980Z,101043.03
2023-01-01T19:55:12.869Z,101042.13
2023-01-01T19:57:41.785Z,100922.53
2023-01-01T20:00:12.280Z,101024.63
2023-01-01T20:02:47.417Z,101037.72
2023-01-01T20:05:16.972Z,100789.06
2023-01-01T20:07:45.537Z,101025.53
2023-01-01T20:10:14.291Z,100981.88
2023-01-01T20:12:42.771Z,101052.56
2023-01-01T20:15:12.081Z,101029.00
2023-01-01T20:17:42.401Z,101032.53
2023-01-01T20:20:12.785Z,100934.72
2023-01-01T20:22:44.263Z,101013.34
2023-01-01T20:25:13.064Z,100997.59
2023-01-01T20:28:01.722Z,101039.59
2023-01-01T20:30:30.476Z,101037.91
2023-01-01T20:33:00.591Z,101037.06
2023-01-01T20:35:46.359Z,100999.53
2023-01-01T20:38:15.350Z,100998.75
2023-01-01T20:40:46.526Z,101037.34
2023-01-01T20:43:17.482Z,100927.34
2023-01-01T20:45:46.070Z,101034.88
2023-01-01T20:48:19.694Z,101031.44
2023-01-01T20:50:48.492Z,101033.50
2023-01-01T20:53:16.979Z,101031.03
2023-01-01T20:55:45.551Z,101025.88
2023-01-01T20:58:13.955Z,101033.00
2023-01-01T21:00:42.653Z,100865.28
2023-01-01T21:03:11.043Z,101027.66
2023-01-01T21:05:41.099Z,100866.94
2023-01-01T21:08:11.943Z,101023.28
2023-01-01T21:10:40.395Z,101025.22
2023-01-01T21:13:08.836Z,101018.22
2023-01-01T21:15:37.342Z,101020.97
2023-01-01T21:18:07.165Z,101016.63
2023-01-01T21:20:39.326Z,101019.34
2023-01-01T21:23:24.418Z,101010.34
2023-01-01T21:25:53.297Z,101001.41
2023-01-01T21:28:21.987Z,101000.47
2023-01-01T21:30:54.354Z,100852.16
2023-01-01T21:33:28.703Z,100915.59
2023-01-01T21:35:57.974Z,100981.81
2023-01-01T21:38:32.897Z,100992.34
2023-01-01T21:41:03.826Z,100909.28
2023-01-01T21:43:40.689Z,100976.28
2023-01-01T21:46:34.857Z,100937.22
2023-01-01T21:49:14.432Z,101005.44
2023-01-01T21:51:50.836Z,100987.66
2023-01-01T21:54:27.421Z,101000.91
2023-01-01T21:56:59.242Z,101007.94
2023-01-01T21:59:39.840Z,100991.94
2023-01-01T22:02:39.364Z,100874.00
2023-01-01T22:05:31.439Z,100979.50
2023-01-01T22:08:00.266Z,100973.47
2023-01-01T22:10:35.882Z,100919.53
2023-01-01T22:13:14.598Z,100901.44
2023-01-01T22:15:45.868Z,100817.97
2023-01-01T22:18:27.064Z,100956.78
2023-01-01T22:20:56.594Z,100959.63
2023-01-01T22:23:36.384Z,100968.41
2023-01-01T22:26:19.960Z,100960.75
2023-01-01T22:28:51.907Z,100961.06
2023-01-01T22:31:26.152Z,100964.81
2023-01-01T22:33:55.403Z,100960.47
2023-01-01T22:36:27.162Z,100895.91
2023-01-01T22:39:01.765Z,100939.53
2023-01-01T22:41:31.556Z,100950.94
2023-01-01T22:44:04.941Z,100956.13
2023-01-01T22:46:38.355Z,100951.56
2023-01-01T22:49:22.900Z,100876.34
2023-01-01T22:51:56.258Z,100852.78
2023-01-01T22:54:24.841Z,100950.47
2023-01-01T22:56:54.672Z,100932.94
2023-01-01T22:59:23.218Z,100951.25
2023-01-01T23:01:51.661Z,100960.03
2023-01-01T23:04:20.423Z,100964.47
2023-01-01T23:06:55.087Z,100899.06
2023-01-01T23:09:24.187Z,100643.28
2023-01-01T23:11:58.167Z,100962.69
2023-01-01T23:14:44.956Z,100897.00
2023-01-01T23:17:13.785Z,100956.31
2023-01-01T23:19:45.379Z,100918.69
2023-01-01T23:22:17.623Z,100943.06
2023-01-01T23:24:47.667Z,100941.31
2023-01-01T23:27:17.594Z,100948.38
2023-01-01T23:29:51.560Z,100942.22
2023-01-01T23:32:20.448Z,100716.25
2023-01-01T23:34:49.110Z,100943.09
2023-01-01T23:37:18.003Z,100931.81
2023-01-01T23:39:46.426Z,100939.66
2023-01-01T23:42:16.246Z,100937.94
2023-01-01T23:44:44.765Z,100933.47
2023-01-01T23:47:14.996Z,100861.03
2023-01-01T23:49:46.571Z,100826.22
2023-01-01T23:52:15.162Z,100936.03
2023-01-01T23:54:43.608Z,100714.28
2023-01-01T23:57:12.202Z,100968.69
2023-01-01T23:59:44.295Z,100943.03
